sensor_id;sensor_type;location;lat;lon;timestamp;temperature;humidity
80577;DHT22;69937;52.420;10.538;2023-10-19T00:03:29;7.00;72.30
80577;DHT22;69937;52.420;10.538;2023-10-19T00:08:30;7.10;72.50
80577;DHT22;69937;52.420;10.538;2023-10-19T00:13:42;7.00;73.20
80577;DHT22;69937;52.420;10.538;2023-10-19T00:18:44;7.00;73.20
80577;DHT22;69937;52.420;10.538;2023-10-19T00:23:46;7.00;73.40
80577;DHT22;69937;52.420;10.538;2023-10-19T00:28:49;7.00;74.20
80577;DHT22;69937;52.420;10.538;2023-10-19T00:33:56;7.00;74.10
80577;DHT22;69937;52.420;10.538;2023-10-19T00:38:56;7.00;74.30
80577;DHT22;69937;52.420;10.538;2023-10-19T00:43:58;7.00;74.20
80577;DHT22;69937;52.420;10.538;2023-10-19T00:49:12;7.00;74.50
80577;DHT22;69937;52.420;10.538;2023-10-19T00:54:35;7.00;75.10
80577;DHT22;69937;52.420;10.538;2023-10-19T00:59:37;7.00;75.00
80577;DHT22;69937;52.420;10.538;2023-10-19T01:05:04;6.90;75.50
80577;DHT22;69937;52.420;10.538;2023-10-19T01:10:07;6.90;75.90
80577;DHT22;69937;52.420;10.538;2023-10-19T01:15:24;6.90;76.20
80577;DHT22;69937;52.420;10.538;2023-10-19T01:20:31;6.90;76.40
80577;DHT22;69937;52.420;10.538;2023-10-19T01:25:32;6.90;76.40
80577;DHT22;69937;52.420;10.538;2023-10-19T01:30:37;6.90;76.60
80577;DHT22;69937;52.420;10.538;2023-10-19T01:35:39;6.90;76.20
80577;DHT22;69937;52.420;10.538;2023-10-19T01:41:01;6.90;76.50
80577;DHT22;69937;52.420;10.538;2023-10-19T01:46:02;6.90;76.70
80577;DHT22;69937;52.420;10.538;2023-10-19T01:51:11;6.90;77.40
80577;DHT22;69937;52.420;10.538;2023-10-19T01:56:16;6.90;77.90
80577;DHT22;69937;52.420;10.538;2023-10-19T02:01:18;6.80;77.90
80577;DHT22;69937;52.420;10.538;2023-10-19T02:06:30;6.80;78.40
80577;DHT22;69937;52.420;10.538;2023-10-19T02:11:38;6.70;79.00
80577;DHT22;69937;52.420;10.538;2023-10-19T02:16:43;6.70;79.00
80577;DHT22;69937;52.420;10.538;2023-10-19T02:21:44;6.60;79.50
80577;DHT22;69937;52.420;10.538;2023-10-19T02:26:52;6.60;79.40
80577;DHT22;69937;52.420;10.538;2023-10-19T02:31:53;6.60;79.70
80577;DHT22;69937;52.420;10.538;2023-10-19T02:36:55;6.50;80.00
80577;DHT22;69937;52.420;10.538;2023-10-19T02:41:55;6.50;80.30
80577;DHT22;69937;52.420;10.538;2023-10-19T02:46:56;6.50;80.30
80577;DHT22;69937;52.420;10.538;2023-10-19T02:51:59;6.50;80.70
80577;DHT22;69937;52.420;10.538;2023-10-19T02:57:04;6.50;80.80
80577;DHT22;69937;52.420;10.538;2023-10-19T03:02:09;6.50;80.90
80577;DHT22;69937;52.420;10.538;2023-10-19T03:07:13;6.40;81.30
80577;DHT22;69937;52.420;10.538;2023-10-19T03:12:13;6.40;81.20
80577;DHT22;69937;52.420;10.538;2023-10-19T03:17:14;6.40;81.30
80577;DHT22;69937;52.420;10.538;2023-10-19T03:22:15;6.40;81.50
80577;DHT22;69937;52.420;10.538;2023-10-19T03:27:17;6.30;81.20
80577;DHT22;69937;52.420;10.538;2023-10-19T03:32:24;6.30;81.20
80577;DHT22;69937;52.420;10.538;2023-10-19T03:37:32;6.30;81.50
80577;DHT22;69937;52.420;10.538;2023-10-19T03:42:35;6.40;81.60
80577;DHT22;69937;52.420;10.538;2023-10-19T03:47:40;6.40;81.80
80577;DHT22;69937;52.420;10.538;2023-10-19T03:52:43;6.40;81.80
80577;DHT22;69937;52.420;10.538;2023-10-19T03:57:45;6.40;81.90
80577;DHT22;69937;52.420;10.538;2023-10-19T04:02:55;6.40;82.00
80577;DHT22;69937;52.420;10.538;2023-10-19T04:07:58;6.40;82.00
80577;DHT22;69937;52.420;10.538;2023-10-19T04:12:59;6.50;82.00
80577;DHT22;69937;52.420;10.538;2023-10-19T04:18:01;6.50;82.30
80577;DHT22;69937;52.420;10.538;2023-10-19T04:23:02;6.50;82.20
80577;DHT22;69937;52.420;10.538;2023-10-19T04:28:10;6.50;82.30
80577;DHT22;69937;52.420;10.538;2023-10-19T04:33:11;6.50;82.40
80577;DHT22;69937;52.420;10.538;2023-10-19T04:38:11;6.50;82.40
80577;DHT22;69937;52.420;10.538;2023-10-19T04:43:12;6.50;82.20
80577;DHT22;69937;52.420;10.538;2023-10-19T04:48:12;6.40;82.60
80577;DHT22;69937;52.420;10.538;2023-10-19T04:53:13;6.50;82.50
80577;DHT22;69937;52.420;10.538;2023-10-19T04:58:13;6.40;82.40
80577;DHT22;69937;52.420;10.538;2023-10-19T05:03:14;6.40;82.30
80577;DHT22;69937;52.420;10.538;2023-10-19T05:08:18;6.40;82.30
80577;DHT22;69937;52.420;10.538;2023-10-19T05:13:20;6.40;82.60
80577;DHT22;69937;52.420;10.538;2023-10-19T05:18:23;6.40;82.40
80577;DHT22;69937;52.420;10.538;2023-10-19T05:23:24;6.40;82.40
80577;DHT22;69937;52.420;10.538;2023-10-19T05:28:25;6.40;82.10
80577;DHT22;69937;52.420;10.538;2023-10-19T05:33:29;6.40;82.20
80577;DHT22;69937;52.420;10.538;2023-10-19T05:38:29;6.40;82.30
80577;DHT22;69937;52.420;10.538;2023-10-19T05:43:32;6.30;82.60
80577;DHT22;69937;52.420;10.538;2023-10-19T05:48:34;6.30;82.70
80577;DHT22;69937;52.420;10.538;2023-10-19T05:53:35;6.30;82.60
80577;DHT22;69937;52.420;10.538;2023-10-19T05:58:37;6.20;82.80
80577;DHT22;69937;52.420;10.538;2023-10-19T06:03:38;6.20;83.20
80577;DHT22;69937;52.420;10.538;2023-10-19T06:08:40;6.20;83.00
80577;DHT22;69937;52.420;10.538;2023-10-19T06:13:41;6.20;83.20
80577;DHT22;69937;52.420;10.538;2023-10-19T06:18:43;6.20;82.80
80577;DHT22;69937;52.420;10.538;2023-10-19T06:23:44;6.20;83.10
80577;DHT22;69937;52.420;10.538;2023-10-19T06:28:44;6.20;83.20
80577;DHT22;69937;52.420;10.538;2023-10-19T06:33:45;6.20;83.10
80577;DHT22;69937;52.420;10.538;2023-10-19T06:38:46;6.20;83.10
80577;DHT22;69937;52.420;10.538;2023-10-19T06:43:46;6.20;83.00
80577;DHT22;69937;52.420;10.538;2023-10-19T06:48:47;6.30;83.10
80577;DHT22;69937;52.420;10.538;2023-10-19T06:53:47;6.20;83.00
80577;DHT22;69937;52.420;10.538;2023-10-19T06:58:48;6.30;83.20
80577;DHT22;69937;52.420;10.538;2023-10-19T07:03:49;6.30;83.40
80577;DHT22;69937;52.420;10.538;2023-10-19T07:08:53;6.20;83.30
80577;DHT22;69937;52.420;10.538;2023-10-19T07:13:54;6.30;83.50
80577;DHT22;69937;52.420;10.538;2023-10-19T07:18:54;6.30;83.40
80577;DHT22;69937;52.420;10.538;2023-10-19T07:23:58;6.30;83.40
80577;DHT22;69937;52.420;10.538;2023-10-19T07:29:01;6.40;83.40
80577;DHT22;69937;52.420;10.538;2023-10-19T07:34:02;6.40;83.40
80577;DHT22;69937;52.420;10.538;2023-10-19T07:39:04;6.40;83.20
80577;DHT22;69937;52.420;10.538;2023-10-19T07:44:05;6.40;83.40
80577;DHT22;69937;52.420;10.538;2023-10-19T07:49:05;6.50;83.20
80577;DHT22;69937;52.420;10.538;2023-10-19T07:54:06;6.50;83.60
80577;DHT22;69937;52.420;10.538;2023-10-19T07:59:07;6.50;83.40
80577;DHT22;69937;52.420;10.538;2023-10-19T08:04:07;6.50;83.60
80577;DHT22;69937;52.420;10.538;2023-10-19T08:09:08;6.50;83.70
80577;DHT22;69937;52.420;10.538;2023-10-19T08:14:11;6.60;83.70
80577;DHT22;69937;52.420;10.538;2023-10-19T08:19:12;6.60;83.70
80577;DHT22;69937;52.420;10.538;2023-10-19T08:24:12;6.70;83.90
80577;DHT22;69937;52.420;10.538;2023-10-19T08:29:18;6.70;83.70
80577;DHT22;69937;52.420;10.538;2023-10-19T08:34:19;6.80;84.00
80577;DHT22;69937;52.420;10.538;2023-10-19T08:39:20;6.80;83.70
80577;DHT22;69937;52.420;10.538;2023-10-19T08:44:21;6.90;83.70
80577;DHT22;69937;52.420;10.538;2023-10-19T08:49:22;6.90;83.60
80577;DHT22;69937;52.420;10.538;2023-10-19T08:54:22;6.90;83.70
80577;DHT22;69937;52.420;10.538;2023-10-19T08:59:23;7.00;83.80
80577;DHT22;69937;52.420;10.538;2023-10-19T09:04:23;7.00;83.40
80577;DHT22;69937;52.420;10.538;2023-10-19T09:09:28;7.00;83.40
80577;DHT22;69937;52.420;10.538;2023-10-19T09:14:36;7.00;83.70
80577;DHT22;69937;52.420;10.538;2023-10-19T09:19:42;7.00;83.60
80577;DHT22;69937;52.420;10.538;2023-10-19T09:24:48;7.10;83.70
80577;DHT22;69937;52.420;10.538;2023-10-19T09:29:50;7.20;83.80
80577;DHT22;69937;52.420;10.538;2023-10-19T09:34:53;7.20;83.70
80577;DHT22;69937;52.420;10.538;2023-10-19T09:39:56;7.20;83.40
80577;DHT22;69937;52.420;10.538;2023-10-19T09:44:59;7.20;83.80
80577;DHT22;69937;52.420;10.538;2023-10-19T09:50:06;7.20;83.40
80577;DHT22;69937;52.420;10.538;2023-10-19T09:55:12;7.20;83.60
80577;DHT22;69937;52.420;10.538;2023-10-19T10:00:14;7.30;83.50
80577;DHT22;69937;52.420;10.538;2023-10-19T10:10:43;7.40;83.50
80577;DHT22;69937;52.420;10.538;2023-10-19T10:15:48;7.40;83.50
80577;DHT22;69937;52.420;10.538;2023-10-19T10:21:04;7.50;83.50
80577;DHT22;69937;52.420;10.538;2023-10-19T10:26:04;7.50;83.20
80577;DHT22;69937;52.420;10.538;2023-10-19T10:36:19;7.50;83.00
80577;DHT22;69937;52.420;10.538;2023-10-19T10:41:22;7.60;82.80
80577;DHT22;69937;52.420;10.538;2023-10-19T10:46:26;7.60;82.80
80577;DHT22;69937;52.420;10.538;2023-10-19T10:51:29;7.60;82.50
80577;DHT22;69937;52.420;10.538;2023-10-19T10:56:30;7.70;82.50
80577;DHT22;69937;52.420;10.538;2023-10-19T11:01:32;7.80;82.40
80577;DHT22;69937;52.420;10.538;2023-10-19T11:06:33;7.80;81.90
80577;DHT22;69937;52.420;10.538;2023-10-19T11:11:37;7.60;82.30
80577;DHT22;69937;52.420;10.538;2023-10-19T11:16:39;7.70;82.60
80577;DHT22;69937;52.420;10.538;2023-10-19T11:21:53;7.70;82.20
80577;DHT22;69937;52.420;10.538;2023-10-19T11:26:55;7.60;82.00
80577;DHT22;69937;52.420;10.538;2023-10-19T11:32:01;7.60;81.90
80577;DHT22;69937;52.420;10.538;2023-10-19T11:37:02;7.50;82.10
80577;DHT22;69937;52.420;10.538;2023-10-19T11:42:05;7.50;82.30
80577;DHT22;69937;52.420;10.538;2023-10-19T11:47:05;7.50;82.30
80577;DHT22;69937;52.420;10.538;2023-10-19T11:52:09;7.50;82.40
80577;DHT22;69937;52.420;10.538;2023-10-19T11:57:09;7.50;82.60
80577;DHT22;69937;52.420;10.538;2023-10-19T12:02:10;7.50;83.00
80577;DHT22;69937;52.420;10.538;2023-10-19T12:07:11;7.60;82.60
80577;DHT22;69937;52.420;10.538;2023-10-19T12:12:12;7.60;82.60
80577;DHT22;69937;52.420;10.538;2023-10-19T12:17:13;7.70;83.00
80577;DHT22;69937;52.420;10.538;2023-10-19T12:22:14;7.70;82.60
80577;DHT22;69937;52.420;10.538;2023-10-19T12:27:15;7.80;82.20
80577;DHT22;69937;52.420;10.538;2023-10-19T12:32:15;7.70;82.50
80577;DHT22;69937;52.420;10.538;2023-10-19T12:37:16;7.60;82.40
80577;DHT22;69937;52.420;10.538;2023-10-19T12:42:18;7.60;82.70
80577;DHT22;69937;52.420;10.538;2023-10-19T12:47:18;7.60;82.40
80577;DHT22;69937;52.420;10.538;2023-10-19T12:52:22;7.50;83.00
80577;DHT22;69937;52.420;10.538;2023-10-19T12:57:23;7.60;82.70
80577;DHT22;69937;52.420;10.538;2023-10-19T13:02:24;7.50;82.90
80577;DHT22;69937;52.420;10.538;2023-10-19T13:07:25;7.60;83.00
80577;DHT22;69937;52.420;10.538;2023-10-19T13:12:26;7.60;82.80
80577;DHT22;69937;52.420;10.538;2023-10-19T13:17:27;7.50;83.00
80577;DHT22;69937;52.420;10.538;2023-10-19T13:22:27;7.50;83.00
80577;DHT22;69937;52.420;10.538;2023-10-19T13:27:28;7.50;83.00
80577;DHT22;69937;52.420;10.538;2023-10-19T13:32:29;7.50;83.00
80577;DHT22;69937;52.420;10.538;2023-10-19T13:37:31;7.50;83.30
80577;DHT22;69937;52.420;10.538;2023-10-19T13:42:32;7.50;83.20
80577;DHT22;69937;52.420;10.538;2023-10-19T13:47:34;7.60;82.80
80577;DHT22;69937;52.420;10.538;2023-10-19T13:52:36;7.60;83.00
80577;DHT22;69937;52.420;10.538;2023-10-19T13:57:36;7.50;82.60
80577;DHT22;69937;52.420;10.538;2023-10-19T14:02:37;7.50;82.80
80577;DHT22;69937;52.420;10.538;2023-10-19T14:07:37;7.50;83.00
80577;DHT22;69937;52.420;10.538;2023-10-19T14:12:40;7.40;83.00
80577;DHT22;69937;52.420;10.538;2023-10-19T14:17:44;7.40;83.30
80577;DHT22;69937;52.420;10.538;2023-10-19T14:22:48;7.30;83.70
80577;DHT22;69937;52.420;10.538;2023-10-19T14:27:51;7.30;83.90
80577;DHT22;69937;52.420;10.538;2023-10-19T14:32:53;7.30;83.90
80577;DHT22;69937;52.420;10.538;2023-10-19T14:37:55;7.30;83.70
80577;DHT22;69937;52.420;10.538;2023-10-19T14:42:56;7.20;83.90
80577;DHT22;69937;52.420;10.538;2023-10-19T14:47:59;7.20;84.10
80577;DHT22;69937;52.420;10.538;2023-10-19T14:53:03;7.20;84.20
80577;DHT22;69937;52.420;10.538;2023-10-19T14:58:05;7.20;84.20
80577;DHT22;69937;52.420;10.538;2023-10-19T15:03:06;7.20;84.20
80577;DHT22;69937;52.420;10.538;2023-10-19T15:08:10;7.20;84.30
80577;DHT22;69937;52.420;10.538;2023-10-19T15:13:11;7.20;84.60
80577;DHT22;69937;52.420;10.538;2023-10-19T15:18:11;7.20;84.50
80577;DHT22;69937;52.420;10.538;2023-10-19T15:23:12;7.20;84.70
80577;DHT22;69937;52.420;10.538;2023-10-19T15:28:13;7.20;84.30
80577;DHT22;69937;52.420;10.538;2023-10-19T15:33:14;7.20;84.40
80577;DHT22;69937;52.420;10.538;2023-10-19T15:38:15;7.20;84.50
80577;DHT22;69937;52.420;10.538;2023-10-19T15:43:15;7.20;84.50
80577;DHT22;69937;52.420;10.538;2023-10-19T15:48:16;7.20;84.70
80577;DHT22;69937;52.420;10.538;2023-10-19T15:53:16;7.20;84.70
80577;DHT22;69937;52.420;10.538;2023-10-19T15:58:17;7.20;84.70
80577;DHT22;69937;52.420;10.538;2023-10-19T16:03:21;7.10;84.70
80577;DHT22;69937;52.420;10.538;2023-10-19T16:08:22;7.10;84.60
80577;DHT22;69937;52.420;10.538;2023-10-19T16:13:22;7.10;84.70
80577;DHT22;69937;52.420;10.538;2023-10-19T16:18:23;7.10;84.40
80577;DHT22;69937;52.420;10.538;2023-10-19T16:23:24;7.00;84.10
80577;DHT22;69937;52.420;10.538;2023-10-19T16:28:24;7.00;84.30
80577;DHT22;69937;52.420;10.538;2023-10-19T16:33:25;7.00;84.20
80577;DHT22;69937;52.420;10.538;2023-10-19T16:38:25;7.00;84.40
80577;DHT22;69937;52.420;10.538;2023-10-19T16:43:26;7.00;84.50
80577;DHT22;69937;52.420;10.538;2023-10-19T16:48:27;7.00;84.50
80577;DHT22;69937;52.420;10.538;2023-10-19T16:53:28;7.00;84.50
80577;DHT22;69937;52.420;10.538;2023-10-19T16:58:29;7.00;84.70
80577;DHT22;69937;52.420;10.538;2023-10-19T17:03:30;7.00;84.80
80577;DHT22;69937;52.420;10.538;2023-10-19T17:08:30;7.00;85.10
80577;DHT22;69937;52.420;10.538;2023-10-19T17:13:31;7.00;85.20
80577;DHT22;69937;52.420;10.538;2023-10-19T17:18:33;7.00;85.20
80577;DHT22;69937;52.420;10.538;2023-10-19T17:23:34;7.00;85.20
80577;DHT22;69937;52.420;10.538;2023-10-19T17:28:36;7.00;85.30
80577;DHT22;69937;52.420;10.538;2023-10-19T17:33:37;7.00;85.30
80577;DHT22;69937;52.420;10.538;2023-10-19T17:38:38;7.00;85.30
80577;DHT22;69937;52.420;10.538;2023-10-19T17:43:39;7.00;85.30
80577;DHT22;69937;52.420;10.538;2023-10-19T17:48:40;7.00;85.30
80577;DHT22;69937;52.420;10.538;2023-10-19T17:53:42;7.00;85.40
80577;DHT22;69937;52.420;10.538;2023-10-19T17:58:43;7.00;85.40
80577;DHT22;69937;52.420;10.538;2023-10-19T18:03:43;7.00;85.30
80577;DHT22;69937;52.420;10.538;2023-10-19T18:08:44;7.00;85.50
80577;DHT22;69937;52.420;10.538;2023-10-19T18:13:44;7.00;85.50
80577;DHT22;69937;52.420;10.538;2023-10-19T18:18:46;7.00;85.60
80577;DHT22;69937;52.420;10.538;2023-10-19T18:23:49;7.00;85.60
80577;DHT22;69937;52.420;10.538;2023-10-19T18:28:50;7.00;85.80
80577;DHT22;69937;52.420;10.538;2023-10-19T18:33:50;7.10;85.90
80577;DHT22;69937;52.420;10.538;2023-10-19T18:38:51;7.20;85.70
80577;DHT22;69937;52.420;10.538;2023-10-19T18:43:52;7.20;85.70
80577;DHT22;69937;52.420;10.538;2023-10-19T18:48:54;7.20;85.70
80577;DHT22;69937;52.420;10.538;2023-10-19T18:53:55;7.20;85.70
80577;DHT22;69937;52.420;10.538;2023-10-19T18:58:56;7.20;86.00
80577;DHT22;69937;52.420;10.538;2023-10-19T19:03:57;7.10;85.90
80577;DHT22;69937;52.420;10.538;2023-10-19T19:08:57;7.10;86.10
80577;DHT22;69937;52.420;10.538;2023-10-19T19:13:58;7.20;86.10
80577;DHT22;69937;52.420;10.538;2023-10-19T19:18:58;7.20;86.00
80577;DHT22;69937;52.420;10.538;2023-10-19T19:23:59;7.20;86.00
80577;DHT22;69937;52.420;10.538;2023-10-19T19:29:00;7.20;86.00
80577;DHT22;69937;52.420;10.538;2023-10-19T19:34:01;7.20;85.90
80577;DHT22;69937;52.420;10.538;2023-10-19T19:39:03;7.20;85.90
80577;DHT22;69937;52.420;10.538;2023-10-19T19:44:03;7.20;85.90
80577;DHT22;69937;52.420;10.538;2023-10-19T19:49:04;7.20;85.80
80577;DHT22;69937;52.420;10.538;2023-10-19T19:54:05;7.20;85.70
80577;DHT22;69937;52.420;10.538;2023-10-19T19:59:05;7.20;85.50
80577;DHT22;69937;52.420;10.538;2023-10-19T20:04:06;7.20;85.40
80577;DHT22;69937;52.420;10.538;2023-10-19T20:09:06;7.20;85.50
80577;DHT22;69937;52.420;10.538;2023-10-19T20:14:11;7.20;85.40
80577;DHT22;69937;52.420;10.538;2023-10-19T20:19:11;7.20;85.10
80577;DHT22;69937;52.420;10.538;2023-10-19T20:24:13;7.20;85.20
80577;DHT22;69937;52.420;10.538;2023-10-19T20:29:14;7.20;85.00
80577;DHT22;69937;52.420;10.538;2023-10-19T20:34:14;7.20;84.80
80577;DHT22;69937;52.420;10.538;2023-10-19T20:39:15;7.20;84.70
80577;DHT22;69937;52.420;10.538;2023-10-19T20:44:15;7.20;84.70
80577;DHT22;69937;52.420;10.538;2023-10-19T20:49:16;7.20;84.60
80577;DHT22;69937;52.420;10.538;2023-10-19T20:54:17;7.20;84.60
80577;DHT22;69937;52.420;10.538;2023-10-19T20:59:18;7.20;84.50
80577;DHT22;69937;52.420;10.538;2023-10-19T21:04:20;7.20;84.40
80577;DHT22;69937;52.420;10.538;2023-10-19T21:09:21;7.20;84.40
80577;DHT22;69937;52.420;10.538;2023-10-19T21:14:22;7.20;84.40
80577;DHT22;69937;52.420;10.538;2023-10-19T21:19:22;7.20;84.40
80577;DHT22;69937;52.420;10.538;2023-10-19T21:24:23;7.20;84.20
80577;DHT22;69937;52.420;10.538;2023-10-19T21:29:24;7.20;84.00
80577;DHT22;69937;52.420;10.538;2023-10-19T21:34:24;7.20;84.00
80577;DHT22;69937;52.420;10.538;2023-10-19T21:39:25;7.20;84.10
80577;DHT22;69937;52.420;10.538;2023-10-19T21:44:25;7.20;84.30
80577;DHT22;69937;52.420;10.538;2023-10-19T21:49:26;7.20;84.30
80577;DHT22;69937;52.420;10.538;2023-10-19T21:54:28;7.20;84.10
80577;DHT22;69937;52.420;10.538;2023-10-19T21:59:28;7.20;84.10
80577;DHT22;69937;52.420;10.538;2023-10-19T22:04:29;7.20;84.00
80577;DHT22;69937;52.420;10.538;2023-10-19T22:09:29;7.10;84.00
80577;DHT22;69937;52.420;10.538;2023-10-19T22:14:32;7.10;84.10
80577;DHT22;69937;52.420;10.538;2023-10-19T22:19:33;7.10;84.00
80577;DHT22;69937;52.420;10.538;2023-10-19T22:24:34;7.20;84.30
80577;DHT22;69937;52.420;10.538;2023-10-19T22:29:34;7.10;84.30
80577;DHT22;69937;52.420;10.538;2023-10-19T22:34:35;7.10;84.20
80577;DHT22;69937;52.420;10.538;2023-10-19T22:39:36;7.10;84.30
80577;DHT22;69937;52.420;10.538;2023-10-19T22:44:37;7.10;84.40
80577;DHT22;69937;52.420;10.538;2023-10-19T22:49:38;7.00;84.50
80577;DHT22;69937;52.420;10.538;2023-10-19T22:54:39;7.00;84.50
80577;DHT22;69937;52.420;10.538;2023-10-19T22:59:40;7.00;84.60
80577;DHT22;69937;52.420;10.538;2023-10-19T23:04:40;7.00;84.60
80577;DHT22;69937;52.420;10.538;2023-10-19T23:09:41;7.00;84.80
80577;DHT22;69937;52.420;10.538;2023-10-19T23:14:41;7.10;85.00
80577;DHT22;69937;52.420;10.538;2023-10-19T23:19:45;7.00;84.70
80577;DHT22;69937;52.420;10.538;2023-10-19T23:24:49;7.00;84.80
80577;DHT22;69937;52.420;10.538;2023-10-19T23:29:56;7.10;84.80
80577;DHT22;69937;52.420;10.538;2023-10-19T23:34:57;7.10;84.80
80577;DHT22;69937;52.420;10.538;2023-10-19T23:39:58;7.10;84.90
80577;DHT22;69937;52.420;10.538;2023-10-19T23:44:58;7.10;85.00
80577;DHT22;69937;52.420;10.538;2023-10-19T23:49:59;7.10;84.90
80577;DHT22;69937;52.420;10.538;2023-10-19T23:55:00;7.00;85.00
